Time;durP1;ratioP1;P1;durP2;ratioP2;P2;SDS_P1;SDS_P2;PMS_P1;PMS_P2;Temp;Humidity;BMP_temperature;BMP_pressure;BME280_temperature;BME280_humidity;BME280_pressure;Samples;Min_cycle;Max_cycle;Signal;HPM_P1;HPM_P2
2022/05/12 00:00:26;;;;;;;5.30;3.42;;;;;;;13.95;42.65;99259.52;1781444;79;21134;-42
2022/05/12 00:02:53;;;;;;;7.50;3.47;;;;;;;13.96;42.61;99258.35;1773050;80;21013;-42
2022/05/12 00:05:20;;;;;;;6.17;3.05;;;;;;;13.97;42.81;99255.83;1772858;80;20992;-42
2022/05/12 00:07:48;;;;;;;5.37;2.90;;;;;;;13.97;43.11;99259.14;1773071;81;21668;-42
2022/05/12 00:10:19;;;;;;;5.03;3.10;;;;;;;13.98;43.31;99258.77;1773061;81;21522;-43
2022/05/12 00:12:47;;;;;;;8.68;3.27;;;;;;;13.98;43.22;99260.70;1772917;80;21300;-42
2022/05/12 00:15:23;;;;;;;9.15;3.12;;;;;;;13.95;43.42;99256.78;1773274;79;20961;-42
2022/05/12 00:17:50;;;;;;;6.58;3.10;;;;;;;13.97;43.37;99256.41;1767055;80;20949;-42
2022/05/12 00:20:19;;;;;;;9.05;3.60;;;;;;;13.96;43.41;99258.35;1765971;80;21064;-42
2022/05/12 00:22:46;;;;;;;5.80;3.10;;;;;;;13.99;43.64;99256.82;1766470;80;21091;-42
2022/05/12 00:25:16;;;;;;;7.92;2.90;;;;;;;14.00;43.61;99258.36;1765982;81;21301;-42
2022/05/12 00:27:43;;;;;;;5.08;3.00;;;;;;;14.00;43.72;99248.81;1766243;81;20957;-43
2022/05/12 00:30:11;;;;;;;6.35;2.90;;;;;;;13.98;43.60;99242.41;1766064;80;21082;-42
2022/05/12 00:32:44;;;;;;;5.65;2.83;;;;;;;13.95;43.54;99240.44;1766158;80;21037;-42
2022/05/12 00:35:11;;;;;;;5.58;3.05;;;;;;;13.93;43.56;99246.87;1766012;80;21020;-42
2022/05/12 00:37:38;;;;;;;7.37;2.65;;;;;;;13.91;43.49;99249.19;1766416;80;21178;-42
2022/05/12 00:40:07;;;;;;;10.90;3.42;;;;;;;13.91;43.87;99247.82;1766018;81;21021;-43
2022/05/12 00:42:33;;;;;;;4.33;2.90;;;;;;;13.91;44.18;99249.19;1766390;81;21016;-42
2022/05/12 00:45:00;;;;;;;7.30;2.85;;;;;;;13.91;44.25;99246.46;1766159;81;20981;-42
2022/05/12 00:47:27;;;;;;;4.85;3.02;;;;;;;13.89;44.13;99246.84;1766050;81;21025;-42
2022/05/12 00:49:53;;;;;;;6.80;2.98;;;;;;;13.88;44.27;99246.66;1766221;80;21241;-42
2022/05/12 00:52:23;;;;;;;8.23;2.45;;;;;;;13.85;43.95;99245.27;1765941;81;21077;-42
2022/05/12 00:55:06;;;;;;;7.75;2.80;;;;;;;13.85;43.89;99245.27;1766208;81;21064;-42
2022/05/12 00:57:40;;;;;;;6.42;2.80;;;;;;;13.84;43.92;99238.27;1737402;81;21606;-42
2022/05/12 01:00:10;;;;;;;9.40;2.83;;;;;;;13.83;44.04;99236.13;1766212;80;21543;-42
2022/05/12 01:02:36;;;;;;;;;;;;;;;13.85;43.96;99237.87;1768612;81;21234;-42
2022/05/12 01:05:05;;;;;;;6.80;2.83;;;;;;;13.87;44.01;99231.47;1765967;81;20108;-42
2022/05/12 01:07:32;;;;;;;6.42;2.85;;;;;;;13.79;44.18;99238.06;1765700;81;21009;-42
2022/05/12 01:10:00;;;;;;;5.42;2.58;;;;;;;13.82;44.20;99233.78;1765878;81;21014;-42
2022/05/12 01:12:27;;;;;;;9.03;3.17;;;;;;;13.85;44.16;99226.19;1765923;81;21049;-42
2022/05/12 01:14:54;;;;;;;5.12;2.90;;;;;;;13.86;44.38;99228.53;1765951;81;21391;-42
2022/05/12 01:17:24;;;;;;;6.35;2.58;;;;;;;13.89;44.39;99225.03;1769501;80;21005;-43
2022/05/12 01:19:51;;;;;;;6.10;3.30;;;;;;;13.93;44.26;99222.34;1773057;81;21084;-42
2022/05/12 01:22:41;;;;;;;6.03;2.67;;;;;;;13.91;44.14;99228.16;1772974;80;21068;-43
2022/05/12 01:25:12;;;;;;;;;;;;;;;13.87;44.11;99223.29;1775850;81;21582;-41
2022/05/12 01:27:42;;;;;;;9.43;2.80;;;;;;;13.84;44.23;99223.28;1737906;82;21256;-41
2022/05/12 01:30:10;;;;;;;6.35;3.02;;;;;;;13.74;44.47;99230.84;1723945;83;21533;-41
2022/05/12 01:32:38;;;;;;;9.53;2.75;;;;;;;13.76;44.31;99227.12;1725794;83;21001;-41
2022/05/12 01:35:07;;;;;;;8.53;2.83;;;;;;;13.79;44.53;99229.11;1725560;83;21052;-41
2022/05/12 01:37:40;;;;;;;6.15;2.30;;;;;;;13.79;44.58;99228.53;1725697;83;21060;-41
2022/05/12 01:40:09;;;;;;;6.50;3.00;;;;;;;13.81;44.74;99224.81;1725749;83;21127;-41
2022/05/12 01:42:36;;;;;;;9.20;3.33;;;;;;;13.79;44.90;99224.44;1725827;83;21044;-41
2022/05/12 01:45:06;;;;;;;4.12;2.62;;;;;;;13.77;45.06;99216.44;1725855;83;21028;-41
2022/05/12 01:47:34;;;;;;;;;;;;;;;13.75;44.92;99210.00;1728572;83;21559;-42
2022/05/12 01:50:00;;;;;;;4.92;2.75;;;;;;;13.73;45.06;99207.47;1725722;83;20192;-42
2022/05/12 01:52:27;;;;;;;5.17;2.67;;;;;;;13.63;45.19;99212.30;1725599;83;21244;-42
2022/05/12 01:54:54;;;;;;;7.90;3.15;;;;;;;13.65;44.86;99217.55;1725750;83;20968;-42
2022/05/12 01:57:22;;;;;;;8.60;3.47;;;;;;;13.66;44.85;99214.24;1725557;83;21475;-42
2022/05/12 01:59:50;;;;;;;4.92;3.08;;;;;;;13.67;44.75;99202.19;1725429;83;20988;-42
2022/05/12 02:02:18;;;;;;;8.08;2.83;;;;;;;13.65;45.15;99208.02;1725857;83;21092;-42
2022/05/12 02:04:47;;;;;;;7.72;2.90;;;;;;;13.63;45.12;99209.57;1725657;83;21829;-42
2022/05/12 02:07:13;;;;;;;5.17;3.05;;;;;;;13.64;45.11;99212.50;1725421;83;21036;-42
2022/05/12 02:09:41;;;;;;;5.92;2.83;;;;;;;13.63;45.06;99208.21;1725549;83;20910;-42
2022/05/12 02:12:09;;;;;;;7.60;3.47;;;;;;;13.63;45.26;99209.57;1725536;83;21104;-42
2022/05/12 02:14:37;;;;;;;5.67;3.00;;;;;;;13.64;45.39;99212.50;1721401;83;21092;-42
2022/05/12 02:17:03;;;;;;;8.35;2.83;;;;;;;13.66;45.38;99212.88;1725423;82;21126;-42
2022/05/12 02:19:32;;;;;;;6.70;3.10;;;;;;;13.67;45.32;99208.42;1725591;83;21555;-42
2022/05/12 02:22:02;;;;;;;5.85;3.10;;;;;;;13.65;44.89;99211.34;1725559;83;21068;-42
2022/05/12 02:24:27;;;;;;;5.97;2.98;;;;;;;13.64;44.82;99212.50;1725334;83;20997;-43
2022/05/12 02:26:56;;;;;;;6.87;3.17;;;;;;;13.63;44.86;99218.53;1725644;83;21099;-42
2022/05/12 02:29:23;;;;;;;6.60;3.22;;;;;;;13.62;45.10;99217.54;1725641;83;22065;-42
2022/05/12 02:31:51;;;;;;;7.60;3.60;;;;;;;13.62;45.09;99213.45;1725538;83;20981;-42
2022/05/12 02:34:18;;;;;;;5.28;3.00;;;;;;;13.62;45.41;99219.69;1725444;83;21005;-42
2022/05/12 02:36:59;;;;;;;5.50;3.17;;;;;;;13.62;45.72;99215.59;1725606;83;21598;-42
2022/05/12 02:39:16;;;;;;;4.87;3.08;;;;;;;13.64;45.76;99210.56;1722912;83;21096;-42
2022/05/12 02:41:43;;;;;;;6.35;3.15;;;;;;;13.63;45.39;99210.94;1725355;83;23125;-42
2022/05/12 02:44:09;;;;;;;5.85;3.05;;;;;;;13.59;45.11;99210.92;1725706;83;20913;-42
2022/05/12 02:46:36;;;;;;;10.75;3.37;;;;;;;13.57;45.09;99211.88;1725714;83;21100;-42
2022/05/12 02:49:03;;;;;;;7.87;3.10;;;;;;;13.57;44.98;99212.45;1725677;83;21300;-43
2022/05/12 02:51:30;;;;;;;5.17;2.92;;;;;;;13.58;45.35;99218.11;1725489;83;22239;-43
2022/05/12 02:53:56;;;;;;;5.45;3.12;;;;;;;13.61;45.14;99212.67;1725675;83;21132;-42
2022/05/12 02:56:23;;;;;;;6.65;3.40;;;;;;;13.60;45.10;99212.49;1725653;83;20948;-42
2022/05/12 02:58:51;;;;;;;8.50;3.27;;;;;;;13.60;45.17;99216.58;1725794;83;21080;-42
2022/05/12 03:01:18;;;;;;;8.05;3.15;;;;;;;13.61;45.13;99219.48;1725480;83;20963;-42
2022/05/12 03:03:45;;;;;;;6.33;3.00;;;;;;;13.61;45.35;99218.70;1725765;83;21052;-42
2022/05/12 03:06:12;;;;;;;5.25;2.95;;;;;;;13.63;45.71;99214.44;1725639;83;21187;-42
2022/05/12 03:08:44;;;;;;;7.72;3.40;;;;;;;13.67;45.53;99214.45;1725358;83;21090;-42
2022/05/12 03:11:11;;;;;;;6.60;3.45;;;;;;;13.70;45.39;99215.81;1725524;83;20905;-42
2022/05/12 03:13:38;;;;;;;6.17;3.40;;;;;;;13.73;45.29;99214.28;1732119;82;21893;-42
2022/05/12 03:16:05;;;;;;;7.35;3.27;;;;;;;13.73;45.11;99221.88;1743113;82;21091;-43
2022/05/12 03:18:31;;;;;;;11.53;2.98;;;;;;;13.73;45.21;99220.52;1749257;82;21080;-42
2022/05/12 03:21:00;;;;;;;15.23;3.60;;;;;;;13.75;45.13;99220.89;1751369;82;21046;-42
2022/05/12 03:23:26;;;;;;;9.28;3.33;;;;;;;13.76;45.30;99214.30;1724242;82;21028;-42
2022/05/12 03:25:54;;;;;;;5.53;2.60;;;;;;;13.78;45.19;99212.55;1721448;82;21510;-42
2022/05/12 03:28:21;;;;;;;6.62;2.87;;;;;;;13.79;45.36;99219.57;1738256;82;21504;-42
2022/05/12 03:30:49;;;;;;;7.60;2.87;;;;;;;13.81;45.13;99219.38;1738122;82;21885;-43
2022/05/12 03:33:16;;;;;;;8.73;3.05;;;;;;;13.83;45.46;99210.82;1738080;82;20999;-42
2022/05/12 03:35:43;;;;;;;5.85;3.15;;;;;;;13.84;45.62;99212.39;1738264;82;20969;-42
2022/05/12 03:38:10;;;;;;;7.17;2.80;;;;;;;13.85;45.72;99216.07;1738269;82;21044;-42
2022/05/12 03:40:37;;;;;;;6.28;3.30;;;;;;;13.84;45.80;99213.75;1738026;82;21048;-43
2022/05/12 03:43:04;;;;;;;4.58;2.62;;;;;;;13.84;45.64;99211.81;1738331;82;21138;-43
2022/05/12 03:45:33;;;;;;;6.33;3.00;;;;;;;13.87;45.55;99213.75;1738093;82;21024;-43
2022/05/12 03:48:00;;;;;;;7.08;2.92;;;;;;;13.90;45.30;99212.19;1737994;82;21035;-44
2022/05/12 03:50:27;;;;;;;7.40;2.87;;;;;;;13.92;45.24;99215.33;1738088;82;21016;-44
2022/05/12 03:52:55;;;;;;;6.83;2.62;;;;;;;13.93;45.12;99212.80;1738187;82;21015;-44
2022/05/12 03:55:25;;;;;;;8.20;3.15;;;;;;;13.94;44.99;99213.76;1738300;82;21136;-43
2022/05/12 03:57:53;;;;;;;8.85;2.60;;;;;;;13.97;44.91;99219.62;1738690;82;21037;-43
2022/05/12 04:00:27;;;;;;;6.95;2.58;;;;;;;13.97;45.01;99210.08;1738680;82;21075;-43
2022/05/12 04:02:54;;;;;;;8.33;2.75;;;;;;;14.00;45.15;99204.62;1738709;82;20957;-43
2022/05/12 04:05:21;;;;;;;6.00;2.42;;;;;;;14.00;45.02;99205.99;1738206;82;21040;-43
2022/05/12 04:07:47;;;;;;;7.17;2.85;;;;;;;14.05;45.21;99206.98;1738462;82;21195;-43
2022/05/12 04:10:15;;;;;;;5.17;2.90;;;;;;;14.13;45.23;99215.97;1738144;82;20949;-43
2022/05/12 04:12:42;;;;;;;7.03;2.75;;;;;;;14.22;45.11;99219.10;1738321;82;21028;-44
2022/05/12 04:15:11;;;;;;;5.60;2.33;;;;;;;14.31;44.96;99210.73;1738106;82;21637;-44
2022/05/12 04:17:38;;;;;;;5.28;2.33;;;;;;;14.43;44.74;99213.69;1736217;82;21598;-44
2022/05/12 04:20:07;;;;;;;6.72;2.72;;;;;;;14.56;44.08;99208.06;1787265;80;22066;-44
2022/05/12 04:22:34;;;;;;;7.12;2.87;;;;;;;14.68;43.80;99209.03;1787359;80;21037;-44
2022/05/12 04:25:00;;;;;;;5.67;2.45;;;;;;;14.80;43.51;99203.77;1786991;80;20947;-44
2022/05/12 04:27:27;;;;;;;5.97;2.52;;;;;;;14.92;43.21;99200.63;1786095;79;20941;-44
2022/05/12 04:29:54;;;;;;;6.00;2.30;;;;;;;15.03;42.92;99200.03;1781336;79;21009;-44
2022/05/12 04:32:21;;;;;;;6.95;2.60;;;;;;;15.14;43.15;99195.92;1781275;80;21266;-44
2022/05/12 04:37:33;;;;;;;5.35;2.60;;;;;;;15.42;42.61;99199.16;1781253;79;20976;-44
2022/05/12 04:40:14;;;;;;;8.05;2.67;;;;;;;15.57;42.12;99194.65;1781333;79;21076;-44
2022/05/12 04:42:41;;;;;;;7.10;2.87;;;;;;;15.75;40.68;99193.78;1780789;80;21002;-43
2022/05/12 04:45:10;;;;;;;6.30;2.70;;;;;;;15.96;40.27;99189.00;1781378;79;21124;-44
2022/05/12 04:47:39;;;;;;;7.55;2.47;;;;;;;16.17;40.65;99195.52;1781475;79;21060;-43
2022/05/12 04:50:08;;;;;;;8.73;2.10;;;;;;;16.39;39.31;99177.77;1781340;80;21591;-43
2022/05/12 04:52:35;;;;;;;6.85;2.75;;;;;;;16.64;39.49;99180.34;1781393;80;21033;-43
2022/05/12 04:55:04;;;;;;;5.42;2.30;;;;;;;16.88;38.50;99174.65;1781453;79;21021;-43
2022/05/12 04:57:38;;;;;;;8.73;2.37;;;;;;;17.14;38.27;99178.67;1781629;79;21085;-44
2022/05/12 05:00:07;;;;;;;4.17;2.25;;;;;;;17.38;37.05;99174.10;1781198;79;21012;-43
2022/05/12 05:02:33;;;;;;;8.08;3.05;;;;;;;17.62;37.05;99171.69;1781533;79;21100;-44
2022/05/12 05:05:00;;;;;;;4.42;2.30;;;;;;;17.86;36.56;99182.17;1781203;80;21001;-44
2022/05/12 05:07:27;;;;;;;5.35;2.33;;;;;;;18.05;35.46;99178.77;1781323;80;21072;-44
2022/05/12 05:09:55;;;;;;;3.80;2.35;;;;;;;18.23;34.90;99175.16;1781292;79;21117;-44
2022/05/12 05:12:21;;;;;;;4.78;2.33;;;;;;;18.37;34.74;99171.42;1781547;80;21493;-44
2022/05/12 05:14:48;;;;;;;9.18;2.72;;;;;;;18.47;34.37;99173.23;1781478;79;21625;-44
2022/05/12 05:17:14;;;;;;;4.33;2.45;;;;;;;18.56;34.37;99168.59;1781324;80;20914;-44
2022/05/12 05:19:41;;;;;;;10.80;2.50;;;;;;;18.63;34.21;99161.03;1804461;79;21484;-44
2022/05/12 05:22:08;;;;;;;9.00;2.50;;;;;;;18.71;34.26;99163.05;1804665;79;21244;-44
2022/05/12 05:24:35;;;;;;;4.95;2.35;;;;;;;18.78;34.21;99162.94;1804726;79;20973;-44
2022/05/12 05:27:04;;;;;;;5.28;2.70;;;;;;;18.85;34.39;99157.91;1805004;79;20996;-44
2022/05/12 05:29:31;;;;;;;6.45;2.70;;;;;;;18.91;34.11;99152.11;1804514;79;20994;-44
2022/05/12 05:31:58;;;;;;;6.80;2.40;;;;;;;18.96;34.15;99157.13;1804602;79;21530;-44
2022/05/12 05:34:25;;;;;;;4.70;2.40;;;;;;;19.01;34.14;99150.55;1799428;79;21266;-44
2022/05/12 05:36:51;;;;;;;10.13;2.42;;;;;;;19.06;34.33;99147.91;1804602;79;21021;-44
2022/05/12 05:39:25;;;;;;;6.55;2.55;;;;;;;19.12;34.28;99144.86;1804555;79;21017;-44
2022/05/12 05:41:55;;;;;;;13.60;2.60;;;;;;;19.16;33.97;99141.44;1805081;79;20919;-44
2022/05/12 05:44:21;;;;;;;6.22;2.98;;;;;;;19.22;34.32;99139.73;1804888;79;21483;-44
2022/05/12 05:46:48;;;;;;;5.60;2.30;;;;;;;19.31;33.84;99137.22;1804823;79;21131;-44
2022/05/12 05:49:16;;;;;;;3.80;2.83;;;;;;;19.40;33.50;99133.30;1799327;79;21426;-44
2022/05/12 05:54:31;;;;;;;7.15;2.75;;;;;;;19.65;33.64;99130.66;1785666;79;21523;-44
2022/05/12 05:56:58;;;;;;;4.37;2.37;;;;;;;19.79;33.90;99127.59;1764357;81;21076;-44
2022/05/12 05:59:25;;;;;;;7.75;3.20;;;;;;;19.91;34.04;99121.41;1764548;81;21842;-44
2022/05/12 06:01:52;;;;;;;11.35;2.70;;;;;;;20.05;34.01;99118.93;1764127;81;21499;-44
2022/05/12 06:04:19;;;;;;;9.48;2.85;;;;;;;20.17;34.05;99120.42;1764073;81;21488;-44
2022/05/12 06:06:46;;;;;;;7.28;3.12;;;;;;;20.33;33.51;99120.43;1741711;81;21554;-44
2022/05/12 06:09:13;;;;;;;8.43;3.22;;;;;;;20.49;33.47;99119.66;1743564;81;21073;-44
2022/05/12 06:11:44;;;;;;;9.88;3.30;;;;;;;20.66;33.73;99116.30;1746597;81;21115;-44
2022/05/12 06:14:11;;;;;;;7.22;3.20;;;;;;;20.86;32.90;99112.81;1732615;81;21332;-44
2022/05/12 06:16:38;;;;;;;10.90;3.30;;;;;;;20.99;33.48;99113.62;1735834;81;20930;-44
2022/05/12 06:19:05;;;;;;;5.92;2.50;;;;;;;21.10;33.53;99109.20;1753795;80;21110;-46
2022/05/12 06:21:35;;;;;;;6.12;2.80;;;;;;;21.16;33.28;99108.25;1764992;80;21000;-45
2022/05/12 06:24:04;;;;;;;6.28;2.58;;;;;;;21.29;33.63;99102.01;1767012;80;21230;-44
2022/05/12 06:26:31;;;;;;;5.37;2.90;;;;;;;21.44;33.38;99099.01;1709352;83;21019;-44
2022/05/12 06:28:58;;;;;;;6.40;2.75;;;;;;;21.61;33.83;99092.95;1729672;83;21035;-44
2022/05/12 06:31:29;;;;;;;5.75;2.60;;;;;;;21.79;33.24;99102.66;1725120;83;21553;-44
2022/05/12 06:33:54;;;;;;;7.45;2.52;;;;;;;21.88;32.97;99095.27;1731380;81;21082;-44
2022/05/12 06:36:21;;;;;;;6.45;2.92;;;;;;;21.92;32.56;99102.86;1726509;83;21330;-44
2022/05/12 06:38:49;;;;;;;8.45;3.10;;;;;;;21.89;32.37;99096.83;1752653;80;21056;-44
2022/05/12 06:41:16;;;;;;;9.00;3.25;;;;;;;21.87;32.46;99100.65;1772176;80;21056;-47
2022/05/12 06:43:45;;;;;;;7.37;2.80;;;;;;;21.88;32.86;99084.23;1767043;80;21079;-47
2022/05/12 06:46:15;;;;;;;7.67;2.50;;;;;;;21.94;32.57;99092.16;1757795;80;21107;-46
2022/05/12 06:48:46;;;;;;;8.08;2.70;;;;;;;22.08;32.36;99094.47;1770430;80;21124;-45
2022/05/12 06:51:15;;;;;;;6.75;3.10;;;;;;;22.27;31.88;99089.91;1765799;80;21032;-45
2022/05/12 06:53:41;;;;;;;5.50;3.00;;;;;;;22.45;32.28;99086.58;1769520;79;21023;-42
2022/05/12 06:56:08;;;;;;;8.60;2.92;;;;;;;22.64;32.25;99081.38;1752841;80;21067;-43
2022/05/12 06:58:36;;;;;;;8.13;2.87;;;;;;;22.82;31.41;99087.69;1752565;81;21099;-43
2022/05/12 07:01:03;;;;;;;10.58;2.92;;;;;;;22.98;31.35;99075.69;1753179;81;21590;-43
2022/05/12 07:03:30;;;;;;;6.78;3.00;;;;;;;23.11;30.99;99069.47;1753046;81;21597;-43
2022/05/12 07:05:57;;;;;;;5.25;2.80;;;;;;;23.22;31.06;99076.16;1752904;81;21012;-43
2022/05/12 07:08:26;;;;;;;6.15;2.85;;;;;;;23.36;31.52;99077.63;1752724;81;21557;-43
2022/05/12 07:10:53;;;;;;;4.30;3.08;;;;;;;23.50;31.02;99077.11;1753230;81;21016;-43
2022/05/12 07:13:20;;;;;;;7.10;3.05;;;;;;;23.61;31.02;99080.25;1752699;81;21114;-43
2022/05/12 07:15:49;;;;;;;8.25;3.50;;;;;;;23.71;31.28;99063.84;1752769;81;21040;-43
2022/05/12 07:18:17;;;;;;;6.33;3.20;;;;;;;23.79;31.05;99054.64;1753126;81;21019;-42
2022/05/12 07:28:46;;;;;;;11.00;3.45;;;;;;;24.24;31.20;99053.42;1752770;81;21672;-43
2022/05/12 07:31:13;;;;;;;7.70;2.95;;;;;;;24.34;31.23;99061.13;1752826;81;20956;-43
2022/05/12 07:33:43;;;;;;;6.35;3.52;;;;;;;24.46;31.64;99063.59;1748875;81;21011;-43
2022/05/12 07:36:14;;;;;;;10.23;3.22;;;;;;;24.58;32.03;99052.38;1752912;80;21060;-43
2022/05/12 07:38:42;;;;;;;7.92;3.30;;;;;;;24.69;31.64;99049.89;1762238;80;21241;-43
2022/05/12 07:41:12;;;;;;;7.87;3.27;;;;;;;24.83;30.85;99048.52;1774809;80;20980;-43
2022/05/12 07:43:39;;;;;;;8.23;3.60;;;;;;;24.95;30.88;99046.83;1784238;80;21027;-43
2022/05/12 07:46:09;;;;;;;6.30;3.02;;;;;;;25.02;31.15;99048.69;1783717;80;21565;-43
2022/05/12 07:48:37;;;;;;;7.75;3.10;;;;;;;25.12;30.98;99041.12;1771732;80;21051;-43
2022/05/12 07:51:03;;;;;;;8.30;3.22;;;;;;;25.21;30.79;99036.94;1752608;81;21679;-43
2022/05/12 07:53:30;;;;;;;8.53;3.50;;;;;;;25.32;31.48;99041.35;1752400;81;20987;-43
2022/05/12 07:55:57;;;;;;;8.15;3.55;;;;;;;25.42;31.12;99028.98;1752670;81;20936;-43
2022/05/12 07:58:25;;;;;;;6.08;3.35;;;;;;;25.56;30.27;99037.94;1752700;81;21047;-43
2022/05/12 08:00:53;;;;;;;9.35;3.42;;;;;;;25.62;30.23;99026.33;1752816;81;21020;-43
2022/05/12 08:03:22;;;;;;;5.85;3.00;;;;;;;25.66;30.42;99028.34;1752684;81;23182;-43
2022/05/12 08:05:49;;;;;;;6.62;2.87;;;;;;;25.71;30.54;99028.44;1753109;81;20965;-43
2022/05/12 08:08:16;;;;;;;4.70;2.62;;;;;;;25.82;30.18;99012.66;1752884;81;21036;-43
2022/05/12 08:10:43;;;;;;;6.45;3.30;;;;;;;25.90;30.56;99022.94;1752737;81;21048;-43
2022/05/12 08:13:17;;;;;;;11.20;3.15;;;;;;;25.98;30.11;99023.99;1753031;81;21048;-43
2022/05/12 08:15:46;;;;;;;5.20;3.20;;;;;;;26.06;30.00;99025.95;1753017;81;21267;-43
2022/05/12 08:18:14;;;;;;;7.47;3.05;;;;;;;26.13;30.24;99010.94;1752852;81;21636;-43
2022/05/12 08:20:41;;;;;;;6.97;3.02;;;;;;;26.26;29.92;99023.99;1732433;81;21051;-43
2022/05/12 08:23:08;;;;;;;8.23;3.12;;;;;;;26.35;29.86;99023.31;1748964;82;21048;-43
2022/05/12 08:25:34;;;;;;;5.28;2.80;;;;;;;26.40;29.90;99019.10;1749147;82;21021;-43
2022/05/12 08:28:01;;;;;;;5.55;2.83;;;;;;;26.41;29.56;99008.14;1749034;82;23234;-43
2022/05/12 08:30:29;;;;;;;7.37;3.17;;;;;;;26.44;30.00;99006.41;1748922;82;21031;-43
2022/05/12 08:32:58;;;;;;;6.42;3.40;;;;;;;26.48;30.06;99009.80;1749042;82;21075;-43
2022/05/12 08:35:25;;;;;;;5.97;3.20;;;;;;;26.55;30.22;99010.80;1749114;82;21084;-43
2022/05/12 08:37:52;;;;;;;6.42;3.10;;;;;;;26.63;30.13;99000.84;1754159;80;21075;-43
2022/05/12 08:40:30;;;;;;;7.17;3.25;;;;;;;26.73;30.55;99009.25;1778793;80;21221;-43
2022/05/12 08:43:03;;;;;;;8.33;3.30;;;;;;;26.85;29.55;99005.44;1752809;80;20944;-43
2022/05/12 08:45:29;;;;;;;9.55;3.35;;;;;;;26.91;29.30;99000.78;1771303;80;21028;-43
2022/05/12 08:47:56;;;;;;;6.95;3.37;;;;;;;26.96;29.75;98996.56;1749594;80;21583;-43
2022/05/12 08:50:27;;;;;;;6.22;3.58;;;;;;;26.98;29.69;98992.03;1779979;80;21501;-43
2022/05/12 08:53:01;;;;;;;4.58;2.92;;;;;;;27.03;29.29;98996.93;1780239;80;21156;-43
2022/05/12 08:55:37;;;;;;;3.85;3.08;;;;;;;27.11;30.32;98991.77;1780012;80;21070;-43
2022/05/12 08:58:20;;;;;;;7.85;4.00;;;;;;;27.18;29.69;98989.34;1779877;80;21534;-43
2022/05/12 09:01:06;;;;;;;9.13;3.77;;;;;;;27.16;29.63;98991.83;1780122;80;21032;-43
2022/05/12 09:04:16;;;;;;;8.88;3.67;;;;;;;27.15;29.92;98984.75;1778347;80;21056;-43
2022/05/12 09:06:57;;;;;;;7.75;3.62;;;;;;;27.19;29.57;98983.93;1777774;80;23108;-42
2022/05/12 09:09:38;;;;;;;7.85;3.70;;;;;;;27.25;29.62;98970.11;1748690;82;20987;-43
2022/05/12 09:12:39;;;;;;;5.65;3.58;;;;;;;27.34;30.17;98973.40;1777634;80;21451;-43
2022/05/12 09:15:18;;;;;;;7.78;3.70;;;;;;;27.46;29.51;98975.09;1779624;80;21817;-43
2022/05/12 09:17:57;;;;;;;9.15;3.65;;;;;;;27.57;28.57;98959.36;1779708;80;21110;-43
2022/05/12 09:20:26;;;;;;;6.17;3.77;;;;;;;27.61;28.62;98961.31;1760102;80;21177;-43
2022/05/12 09:22:53;;;;;;;7.15;3.47;;;;;;;27.64;28.58;98960.98;1752707;81;20974;-43
2022/05/12 09:25:40;;;;;;;6.03;3.75;;;;;;;27.67;29.07;98960.00;1752632;81;21024;-43
2022/05/12 09:28:34;;;;;;;21.30;3.85;;;;;;;27.71;28.56;98962.57;1752584;81;21042;-43
2022/05/12 09:31:17;;;;;;;7.22;3.70;;;;;;;27.73;28.18;98952.49;1773396;80;21071;-43
2022/05/12 09:33:53;;;;;;;9.10;3.33;;;;;;;27.75;28.46;98954.15;1753708;80;21129;-43
2022/05/12 09:36:27;;;;;;;9.15;3.40;;;;;;;27.83;28.50;98946.17;1761790;80;20984;-44
2022/05/12 09:38:58;;;;;;;11.03;3.47;;;;;;;27.88;28.54;98932.31;1778588;80;21013;-45
2022/05/12 09:41:33;;;;;;;8.55;4.12;;;;;;;27.94;29.10;98935.91;1752692;81;21009;-44
2022/05/12 09:44:00;;;;;;;11.55;3.80;;;;;;;28.02;28.00;98937.67;1753950;80;21043;-45
2022/05/12 09:46:31;;;;;;;11.53;3.95;;;;;;;28.04;28.23;98937.30;1721163;80;21136;-45
2022/05/12 09:49:18;;;;;;;;;;;;;;;28.11;28.83;98930.59;1772547;80;20948;-45
2022/05/12 09:51:45;;;;;;;9.20;4.00;;;;;;;28.28;28.25;98927.34;1752457;81;20201;-45
2022/05/12 09:54:26;;;;;;;14.23;4.17;;;;;;;28.34;27.76;98913.47;1752523;81;21040;-45
2022/05/12 09:56:58;;;;;;;8.35;3.75;;;;;;;28.42;26.98;98925.72;1752582;81;22265;-45
2022/05/12 09:59:28;;;;;;;7.53;3.70;;;;;;;28.45;26.55;98917.78;1752587;81;21123;-45
2022/05/12 10:02:07;;;;;;;10.25;4.12;;;;;;;28.47;27.21;98915.25;1752821;81;21011;-45
2022/05/12 10:10:24;;;;;;;11.70;3.42;;;;;;;28.50;26.93;98915.67;1767666;80;21033;-45
2022/05/12 10:13:15;;;;;;;9.05;3.98;;;;;;;28.51;27.71;98914.42;1773210;80;21218;-45
2022/05/12 10:15:43;;;;;;;8.48;3.90;;;;;;;28.61;27.93;98915.77;1752223;80;21071;-45
2022/05/12 10:18:28;;;;;;;6.75;3.90;;;;;;;28.72;27.32;98911.72;1759389;80;21022;-45
2022/05/12 10:20:57;;;;;;;10.28;3.87;;;;;;;28.83;27.11;98898.50;1752562;80;21004;-45
2022/05/12 10:23:30;;;;;;;10.53;3.83;;;;;;;28.97;26.66;98884.27;1752441;81;21656;-45
2022/05/12 10:26:20;;;;;;;7.85;3.60;;;;;;;29.06;26.38;98899.44;1752616;81;21214;-45
2022/05/12 10:29:00;;;;;;;10.45;3.80;;;;;;;29.12;26.74;98884.27;1763034;80;21015;-45
2022/05/12 10:35:18;;;;;;;7.53;3.75;;;;;;;29.31;26.21;98888.86;1818157;78;22709;-44
2022/05/12 10:38:16;;;;;;;12.00;4.00;;;;;;;29.39;26.34;98882.93;1801394;79;20929;-44
2022/05/12 10:40:46;;;;;;;19.73;3.90;;;;;;;29.57;26.19;98885.97;1784470;80;21235;-44
2022/05/12 10:44:00;;;;;;;8.23;3.60;;;;;;;29.66;25.54;98868.36;1756519;80;21004;-44
2022/05/12 10:46:41;;;;;;;16.65;3.87;;;;;;;29.56;25.52;98855.87;1759857;80;20989;-44
2022/05/12 10:49:25;;;;;;;11.03;3.45;;;;;;;29.46;25.58;98857.34;1748983;80;20968;-44
2022/05/12 10:52:14;;;;;;;13.48;3.47;;;;;;;29.48;25.61;98847.84;1749608;82;20986;-44
2022/05/12 10:54:56;;;;;;;8.10;3.83;;;;;;;29.57;25.65;98839.88;1749582;82;21070;-42
2022/05/12 10:57:38;;;;;;;15.40;3.75;;;;;;;29.67;25.22;98864.31;1740778;82;20947;-43
2022/05/12 11:00:36;;;;;;;11.68;3.33;;;;;;;29.72;24.74;98839.05;1744700;82;22484;-43
2022/05/12 11:03:11;;;;;;;8.25;3.47;;;;;;;29.82;25.45;98836.80;1749655;82;21026;-42
2022/05/12 11:05:53;;;;;;;12.15;3.67;;;;;;;30.00;25.26;98836.37;1749391;82;21054;-42
2022/05/12 11:08:40;;;;;;;14.90;4.00;;;;;;;30.19;24.15;98822.81;1749741;82;21529;-43
2022/05/12 11:11:17;;;;;;;9.88;3.52;;;;;;;30.24;23.87;98796.13;1721652;82;21018;-42
2022/05/12 11:14:18;;;;;;;13.45;3.50;;;;;;;30.25;24.47;98814.44;1749551;82;21030;-42
2022/05/12 11:16:58;;;;;;;10.10;3.00;;;;;;;30.27;23.80;98803.48;1749627;82;21496;-42
2022/05/12 11:19:25;;;;;;;9.38;3.00;;;;;;;30.26;24.00;98806.16;1749415;82;20995;-43
2022/05/12 11:22:32;;;;;;;7.75;3.55;;;;;;;30.25;24.66;98808.84;1749895;82;21587;-43
2022/05/12 11:25:18;;;;;;;12.07;3.60;;;;;;;30.26;24.41;98811.01;1749625;82;20990;-42
2022/05/12 11:31:24;;;;;;;13.60;2.87;;;;;;;30.37;24.49;98793.58;1727256;82;21056;-43
2022/05/12 11:33:56;;;;;;;15.10;3.40;;;;;;;30.44;24.12;98786.09;1740137;81;21549;-42
2022/05/12 11:36:43;;;;;;;22.65;4.33;;;;;;;30.32;24.03;98772.60;1738126;82;21997;-43
2022/05/12 11:39:41;;;;;;;13.32;3.35;;;;;;;30.17;23.79;98778.44;1749400;81;21477;-43
2022/05/12 11:42:26;;;;;;;10.53;3.30;;;;;;;30.21;24.95;98771.95;1749666;82;21476;-43
2022/05/12 11:45:05;;;;;;;14.20;3.47;;;;;;;30.47;24.55;98764.13;1748454;82;21073;-43
2022/05/12 11:48:07;;;;;;;12.07;2.72;;;;;;;30.67;23.40;98766.52;1748965;82;21080;-43
2022/05/12 11:50:32;;;;;;;19.02;3.58;;;;;;;30.77;22.91;98760.14;1743262;82;21093;-43
2022/05/12 11:53:25;;;;;;;19.75;4.17;;;;;;;30.82;22.60;98750.22;1748686;82;20932;-43
2022/05/12 11:56:03;;;;;;;16.95;3.92;;;;;;;30.77;22.99;98740.55;1748762;82;20936;-43
2022/05/12 11:58:43;;;;;;;14.90;3.25;;;;;;;30.76;23.00;98732.66;1748536;82;21033;-43
2022/05/12 12:01:27;;;;;;;13.53;3.47;;;;;;;30.79;23.34;98742.86;1748743;82;20917;-43
2022/05/12 12:03:58;;;;;;;17.25;3.22;;;;;;;30.99;23.14;98724.33;1738430;82;21244;-43
2022/05/12 12:06:42;;;;;;;13.80;3.50;;;;;;;31.24;22.72;98731.65;1749186;82;20893;-43
2022/05/12 12:09:38;;;;;;;17.20;3.55;;;;;;;31.42;22.51;98738.69;1746518;81;21016;-43
2022/05/12 12:12:09;;;;;;;10.30;3.08;;;;;;;31.45;22.57;98720.23;1722139;81;21520;-43
2022/05/12 12:14:55;;;;;;;13.22;3.40;;;;;;;31.37;22.13;98710.83;1746724;82;21036;-43
2022/05/12 12:17:34;;;;;;;9.25;2.80;;;;;;;31.31;22.72;98722.72;1742600;81;21082;-43